sensor_id;sensor_type;location;lat;lon;timestamp;temperature;humidity
53599;DHT22;39485;45.702;11.364;2023-08-06T00:00:26;18.00;99.90
53599;DHT22;39485;45.702;11.364;2023-08-06T00:02:52;18.10;99.90
53599;DHT22;39485;45.702;11.364;2023-08-06T00:05:18;18.10;99.90
53599;DHT22;39485;45.702;11.364;2023-08-06T00:07:49;18.10;99.90
53599;DHT22;39485;45.702;11.364;2023-08-06T00:10:16;18.10;99.90
53599;DHT22;39485;45.702;11.364;2023-08-06T00:12:42;18.10;99.90
53599;DHT22;39485;45.702;11.364;2023-08-06T00:15:08;18.10;99.90
53599;DHT22;39485;45.702;11.364;2023-08-06T00:17:34;18.10;99.90
53599;DHT22;39485;45.702;11.364;2023-08-06T00:20:01;18.10;99.90
53599;DHT22;39485;45.702;11.364;2023-08-06T00:22:35;18.20;99.90
53599;DHT22;39485;45.702;11.364;2023-08-06T00:25:01;18.10;99.90
53599;DHT22;39485;45.702;11.364;2023-08-06T00:27:27;18.10;99.90
53599;DHT22;39485;45.702;11.364;2023-08-06T00:29:53;18.20;99.90
53599;DHT22;39485;45.702;11.364;2023-08-06T00:32:19;18.10;99.90
53599;DHT22;39485;45.702;11.364;2023-08-06T00:34:45;18.10;99.90
53599;DHT22;39485;45.702;11.364;2023-08-06T00:37:11;18.10;99.90
53599;DHT22;39485;45.702;11.364;2023-08-06T00:39:36;18.10;99.90
53599;DHT22;39485;45.702;11.364;2023-08-06T00:42:02;18.10;99.90
53599;DHT22;39485;45.702;11.364;2023-08-06T00:44:28;18.00;99.90
53599;DHT22;39485;45.702;11.364;2023-08-06T00:46:55;17.90;99.90
53599;DHT22;39485;45.702;11.364;2023-08-06T00:49:21;17.90;99.90
53599;DHT22;39485;45.702;11.364;2023-08-06T00:51:47;17.90;99.90
53599;DHT22;39485;45.702;11.364;2023-08-06T00:54:13;17.90;99.90
53599;DHT22;39485;45.702;11.364;2023-08-06T00:56:40;17.90;99.90
53599;DHT22;39485;45.702;11.364;2023-08-06T00:59:06;17.90;99.90
53599;DHT22;39485;45.702;11.364;2023-08-06T01:01:32;17.80;99.90
53599;DHT22;39485;45.702;11.364;2023-08-06T01:03:58;17.80;99.90
53599;DHT22;39485;45.702;11.364;2023-08-06T01:06:43;17.80;99.90
53599;DHT22;39485;45.702;11.364;2023-08-06T01:12:34;17.70;99.90
53599;DHT22;39485;45.702;11.364;2023-08-06T01:20:11;17.60;99.90
53599;DHT22;39485;45.702;11.364;2023-08-06T01:22:37;17.60;99.90
53599;DHT22;39485;45.702;11.364;2023-08-06T01:25:03;17.60;99.90
53599;DHT22;39485;45.702;11.364;2023-08-06T01:27:41;17.60;99.90
53599;DHT22;39485;45.702;11.364;2023-08-06T01:30:22;17.60;99.90
53599;DHT22;39485;45.702;11.364;2023-08-06T01:32:52;17.50;99.90
53599;DHT22;39485;45.702;11.364;2023-08-06T01:35:19;17.50;99.90
53599;DHT22;39485;45.702;11.364;2023-08-06T01:37:47;17.50;99.90
53599;DHT22;39485;45.702;11.364;2023-08-06T01:40:13;17.50;99.90
53599;DHT22;39485;45.702;11.364;2023-08-06T01:42:39;17.50;99.90
53599;DHT22;39485;45.702;11.364;2023-08-06T01:45:09;17.50;99.90
53599;DHT22;39485;45.702;11.364;2023-08-06T01:47:35;17.50;99.90
53599;DHT22;39485;45.702;11.364;2023-08-06T01:50:01;17.40;99.90
53599;DHT22;39485;45.702;11.364;2023-08-06T01:52:27;17.40;99.90
53599;DHT22;39485;45.702;11.364;2023-08-06T01:54:53;17.40;99.90
53599;DHT22;39485;45.702;11.364;2023-08-06T01:57:19;17.50;99.90
53599;DHT22;39485;45.702;11.364;2023-08-06T01:59:44;17.40;99.90
53599;DHT22;39485;45.702;11.364;2023-08-06T02:02:10;17.40;99.90
53599;DHT22;39485;45.702;11.364;2023-08-06T02:04:35;17.40;99.90
53599;DHT22;39485;45.702;11.364;2023-08-06T02:07:01;17.50;99.90
53599;DHT22;39485;45.702;11.364;2023-08-06T02:09:27;17.40;99.90
53599;DHT22;39485;45.702;11.364;2023-08-06T02:11:52;17.50;99.90
53599;DHT22;39485;45.702;11.364;2023-08-06T02:14:18;17.40;99.90
53599;DHT22;39485;45.702;11.364;2023-08-06T02:16:44;17.50;99.90
53599;DHT22;39485;45.702;11.364;2023-08-06T02:19:09;17.50;99.90
53599;DHT22;39485;45.702;11.364;2023-08-06T02:21:35;17.50;99.90
53599;DHT22;39485;45.702;11.364;2023-08-06T02:24:01;17.50;99.90
53599;DHT22;39485;45.702;11.364;2023-08-06T02:26:26;17.50;99.90
53599;DHT22;39485;45.702;11.364;2023-08-06T02:28:52;17.50;99.90
53599;DHT22;39485;45.702;11.364;2023-08-06T02:31:18;17.60;99.90
53599;DHT22;39485;45.702;11.364;2023-08-06T02:33:43;17.50;99.90
53599;DHT22;39485;45.702;11.364;2023-08-06T02:36:09;17.50;99.90
53599;DHT22;39485;45.702;11.364;2023-08-06T02:38:35;17.50;99.90
53599;DHT22;39485;45.702;11.364;2023-08-06T02:41:04;17.50;99.90
53599;DHT22;39485;45.702;11.364;2023-08-06T02:43:30;17.50;99.90
53599;DHT22;39485;45.702;11.364;2023-08-06T02:46:01;17.50;99.90
53599;DHT22;39485;45.702;11.364;2023-08-06T02:48:27;17.50;99.90
53599;DHT22;39485;45.702;11.364;2023-08-06T02:50:56;17.50;99.90
53599;DHT22;39485;45.702;11.364;2023-08-06T02:53:22;17.50;99.90
53599;DHT22;39485;45.702;11.364;2023-08-06T02:55:48;17.50;99.90
53599;DHT22;39485;45.702;11.364;2023-08-06T02:58:17;17.50;99.90
53599;DHT22;39485;45.702;11.364;2023-08-06T03:01:02;17.50;99.90
53599;DHT22;39485;45.702;11.364;2023-08-06T03:03:29;17.50;99.90
53599;DHT22;39485;45.702;11.364;2023-08-06T03:05:55;17.50;99.90
53599;DHT22;39485;45.702;11.364;2023-08-06T03:08:21;17.60;99.90
53599;DHT22;39485;45.702;11.364;2023-08-06T03:10:51;17.50;99.90
53599;DHT22;39485;45.702;11.364;2023-08-06T03:13:17;17.50;99.90
53599;DHT22;39485;45.702;11.364;2023-08-06T03:15:51;17.50;99.90
53599;DHT22;39485;45.702;11.364;2023-08-06T03:18:17;17.40;99.90
53599;DHT22;39485;45.702;11.364;2023-08-06T03:20:42;17.40;99.90
53599;DHT22;39485;45.702;11.364;2023-08-06T03:23:10;17.40;99.90
53599;DHT22;39485;45.702;11.364;2023-08-06T03:25:35;17.40;99.90
53599;DHT22;39485;45.702;11.364;2023-08-06T03:28:02;17.50;99.90
53599;DHT22;39485;45.702;11.364;2023-08-06T03:30:28;17.40;99.90
53599;DHT22;39485;45.702;11.364;2023-08-06T03:32:54;17.40;99.90
53599;DHT22;39485;45.702;11.364;2023-08-06T03:35:19;17.40;99.90
53599;DHT22;39485;45.702;11.364;2023-08-06T03:37:45;17.40;99.90
53599;DHT22;39485;45.702;11.364;2023-08-06T03:40:11;17.40;99.90
53599;DHT22;39485;45.702;11.364;2023-08-06T03:42:37;17.40;99.90
53599;DHT22;39485;45.702;11.364;2023-08-06T03:45:02;17.40;99.90
53599;DHT22;39485;45.702;11.364;2023-08-06T03:47:28;17.40;99.90
53599;DHT22;39485;45.702;11.364;2023-08-06T03:49:54;17.40;99.90
53599;DHT22;39485;45.702;11.364;2023-08-06T03:52:20;17.40;99.90
53599;DHT22;39485;45.702;11.364;2023-08-06T03:54:45;17.30;99.90
53599;DHT22;39485;45.702;11.364;2023-08-06T03:57:11;17.20;99.90
53599;DHT22;39485;45.702;11.364;2023-08-06T03:59:37;17.20;99.90
53599;DHT22;39485;45.702;11.364;2023-08-06T04:02:03;17.10;99.90
53599;DHT22;39485;45.702;11.364;2023-08-06T04:04:28;17.10;99.90
53599;DHT22;39485;45.702;11.364;2023-08-06T04:06:54;17.10;99.90
53599;DHT22;39485;45.702;11.364;2023-08-06T04:09:20;17.00;99.90
53599;DHT22;39485;45.702;11.364;2023-08-06T04:11:46;17.00;99.90
53599;DHT22;39485;45.702;11.364;2023-08-06T04:14:12;16.90;99.90
53599;DHT22;39485;45.702;11.364;2023-08-06T04:16:37;16.90;99.90
53599;DHT22;39485;45.702;11.364;2023-08-06T04:19:03;17.00;99.90
53599;DHT22;39485;45.702;11.364;2023-08-06T04:21:28;17.00;99.90
53599;DHT22;39485;45.702;11.364;2023-08-06T04:23:55;16.90;99.90
53599;DHT22;39485;45.702;11.364;2023-08-06T04:26:21;16.90;99.90
53599;DHT22;39485;45.702;11.364;2023-08-06T04:28:47;16.90;99.90
53599;DHT22;39485;45.702;11.364;2023-08-06T04:31:12;16.90;99.90
53599;DHT22;39485;45.702;11.364;2023-08-06T04:33:38;16.90;99.90
53599;DHT22;39485;45.702;11.364;2023-08-06T04:36:04;16.90;99.90
53599;DHT22;39485;45.702;11.364;2023-08-06T04:38:30;16.90;99.90
53599;DHT22;39485;45.702;11.364;2023-08-06T04:40:55;16.90;99.90
53599;DHT22;39485;45.702;11.364;2023-08-06T04:43:21;16.90;99.90
53599;DHT22;39485;45.702;11.364;2023-08-06T04:45:51;16.90;99.90
53599;DHT22;39485;45.702;11.364;2023-08-06T04:48:18;16.90;99.90
53599;DHT22;39485;45.702;11.364;2023-08-06T04:50:49;16.90;99.90
53599;DHT22;39485;45.702;11.364;2023-08-06T04:53:15;16.90;99.90
53599;DHT22;39485;45.702;11.364;2023-08-06T04:55:41;17.00;99.90
53599;DHT22;39485;45.702;11.364;2023-08-06T04:58:08;17.00;99.90
53599;DHT22;39485;45.702;11.364;2023-08-06T05:00:34;17.00;99.90
53599;DHT22;39485;45.702;11.364;2023-08-06T05:03:00;17.00;99.90
53599;DHT22;39485;45.702;11.364;2023-08-06T05:05:27;17.00;99.90
53599;DHT22;39485;45.702;11.364;2023-08-06T05:07:54;17.00;99.90
53599;DHT22;39485;45.702;11.364;2023-08-06T05:10:20;17.00;99.90
53599;DHT22;39485;45.702;11.364;2023-08-06T05:12:45;17.00;99.90
53599;DHT22;39485;45.702;11.364;2023-08-06T05:15:11;17.10;99.90
53599;DHT22;39485;45.702;11.364;2023-08-06T05:17:37;17.10;99.90
53599;DHT22;39485;45.702;11.364;2023-08-06T05:20:03;17.10;99.90
53599;DHT22;39485;45.702;11.364;2023-08-06T05:22:29;17.20;99.90
53599;DHT22;39485;45.702;11.364;2023-08-06T05:24:55;17.20;99.90
53599;DHT22;39485;45.702;11.364;2023-08-06T05:27:20;17.30;99.90
53599;DHT22;39485;45.702;11.364;2023-08-06T05:29:47;17.30;99.90
53599;DHT22;39485;45.702;11.364;2023-08-06T05:32:13;17.40;99.90
53599;DHT22;39485;45.702;11.364;2023-08-06T05:34:39;17.50;99.90
53599;DHT22;39485;45.702;11.364;2023-08-06T05:37:05;17.60;99.90
53599;DHT22;39485;45.702;11.364;2023-08-06T05:39:30;17.70;99.90
53599;DHT22;39485;45.702;11.364;2023-08-06T05:41:56;17.80;99.90
53599;DHT22;39485;45.702;11.364;2023-08-06T05:44:23;17.90;99.90
53599;DHT22;39485;45.702;11.364;2023-08-06T05:50:17;18.10;99.90
53599;DHT22;39485;45.702;11.364;2023-08-06T05:52:43;18.20;99.90
53599;DHT22;39485;45.702;11.364;2023-08-06T05:55:09;18.30;99.90
53599;DHT22;39485;45.702;11.364;2023-08-06T05:57:34;18.40;99.90
53599;DHT22;39485;45.702;11.364;2023-08-06T06:00:01;18.50;99.90
53599;DHT22;39485;45.702;11.364;2023-08-06T06:02:27;18.50;99.90
53599;DHT22;39485;45.702;11.364;2023-08-06T06:04:52;18.60;99.90
53599;DHT22;39485;45.702;11.364;2023-08-06T06:07:18;18.70;99.90
53599;DHT22;39485;45.702;11.364;2023-08-06T06:09:44;18.80;99.90
53599;DHT22;39485;45.702;11.364;2023-08-06T06:12:09;18.90;99.90
53599;DHT22;39485;45.702;11.364;2023-08-06T06:14:35;19.00;99.90
53599;DHT22;39485;45.702;11.364;2023-08-06T06:17:01;19.20;99.90
53599;DHT22;39485;45.702;11.364;2023-08-06T06:19:26;19.30;99.90
53599;DHT22;39485;45.702;11.364;2023-08-06T06:21:52;19.40;99.90
53599;DHT22;39485;45.702;11.364;2023-08-06T06:24:18;19.50;99.90
53599;DHT22;39485;45.702;11.364;2023-08-06T06:26:44;19.60;99.90
53599;DHT22;39485;45.702;11.364;2023-08-06T06:29:10;19.70;99.90
53599;DHT22;39485;45.702;11.364;2023-08-06T06:31:35;19.80;99.90
53599;DHT22;39485;45.702;11.364;2023-08-06T06:34:01;19.90;99.90
53599;DHT22;39485;45.702;11.364;2023-08-06T06:36:27;20.00;99.90
53599;DHT22;39485;45.702;11.364;2023-08-06T06:38:52;20.10;99.90
53599;DHT22;39485;45.702;11.364;2023-08-06T06:41:18;20.20;99.90
53599;DHT22;39485;45.702;11.364;2023-08-06T06:43:44;20.40;99.90
53599;DHT22;39485;45.702;11.364;2023-08-06T06:46:09;20.40;99.90
53599;DHT22;39485;45.702;11.364;2023-08-06T06:48:35;20.60;99.90
53599;DHT22;39485;45.702;11.364;2023-08-06T06:51:01;20.70;99.90
53599;DHT22;39485;45.702;11.364;2023-08-06T06:53:26;20.90;99.90
53599;DHT22;39485;45.702;11.364;2023-08-06T06:56:01;21.00;99.90
53599;DHT22;39485;45.702;11.364;2023-08-06T06:58:26;21.20;99.90
53599;DHT22;39485;45.702;11.364;2023-08-06T07:00:52;21.30;99.90
53599;DHT22;39485;45.702;11.364;2023-08-06T07:03:20;21.50;99.90
53599;DHT22;39485;45.702;11.364;2023-08-06T07:05:46;21.70;99.90
53599;DHT22;39485;45.702;11.364;2023-08-06T07:08:11;21.80;99.90
53599;DHT22;39485;45.702;11.364;2023-08-06T07:10:37;21.90;99.90
53599;DHT22;39485;45.702;11.364;2023-08-06T07:13:03;22.10;99.90
53599;DHT22;39485;45.702;11.364;2023-08-06T07:15:29;22.20;99.90
53599;DHT22;39485;45.702;11.364;2023-08-06T07:17:55;22.20;99.90
53599;DHT22;39485;45.702;11.364;2023-08-06T07:20:20;22.20;99.90
53599;DHT22;39485;45.702;11.364;2023-08-06T07:22:46;22.30;99.90
53599;DHT22;39485;45.702;11.364;2023-08-06T07:25:12;22.40;99.90
53599;DHT22;39485;45.702;11.364;2023-08-06T07:27:38;22.40;99.90
53599;DHT22;39485;45.702;11.364;2023-08-06T07:30:04;22.50;99.90
53599;DHT22;39485;45.702;11.364;2023-08-06T07:32:31;22.50;99.90
53599;DHT22;39485;45.702;11.364;2023-08-06T07:34:56;22.60;99.90
53599;DHT22;39485;45.702;11.364;2023-08-06T07:37:26;22.70;99.90
53599;DHT22;39485;45.702;11.364;2023-08-06T07:39:57;22.80;99.90
53599;DHT22;39485;45.702;11.364;2023-08-06T07:42:23;22.80;99.90
53599;DHT22;39485;45.702;11.364;2023-08-06T07:44:53;22.90;99.90
53599;DHT22;39485;45.702;11.364;2023-08-06T07:47:20;22.90;99.90
53599;DHT22;39485;45.702;11.364;2023-08-06T07:49:45;23.00;99.90
53599;DHT22;39485;45.702;11.364;2023-08-06T07:52:11;23.00;99.90
53599;DHT22;39485;45.702;11.364;2023-08-06T07:54:37;23.10;99.90
53599;DHT22;39485;45.702;11.364;2023-08-06T07:57:03;23.10;99.90
53599;DHT22;39485;45.702;11.364;2023-08-06T07:59:28;23.10;99.90
53599;DHT22;39485;45.702;11.364;2023-08-06T08:01:54;23.20;99.90
53599;DHT22;39485;45.702;11.364;2023-08-06T08:04:20;23.20;99.90
53599;DHT22;39485;45.702;11.364;2023-08-06T08:06:46;23.20;99.90
53599;DHT22;39485;45.702;11.364;2023-08-06T08:09:13;23.30;99.90
53599;DHT22;39485;45.702;11.364;2023-08-06T08:11:39;23.30;99.90
53599;DHT22;39485;45.702;11.364;2023-08-06T08:14:05;23.40;99.90
53599;DHT22;39485;45.702;11.364;2023-08-06T08:16:31;23.40;99.90
53599;DHT22;39485;45.702;11.364;2023-08-06T08:18:57;23.40;99.90
53599;DHT22;39485;45.702;11.364;2023-08-06T08:21:22;23.40;99.90
53599;DHT22;39485;45.702;11.364;2023-08-06T08:23:50;23.50;99.90
53599;DHT22;39485;45.702;11.364;2023-08-06T08:26:15;23.50;99.90
53599;DHT22;39485;45.702;11.364;2023-08-06T08:28:41;23.50;99.90
53599;DHT22;39485;45.702;11.364;2023-08-06T08:31:10;23.60;99.90
53599;DHT22;39485;45.702;11.364;2023-08-06T08:33:40;23.60;99.90
53599;DHT22;39485;45.702;11.364;2023-08-06T08:36:05;23.70;99.90
53599;DHT22;39485;45.702;11.364;2023-08-06T08:38:31;23.80;99.90
53599;DHT22;39485;45.702;11.364;2023-08-06T08:40:57;23.80;99.90
53599;DHT22;39485;45.702;11.364;2023-08-06T08:43:23;23.90;99.90
53599;DHT22;39485;45.702;11.364;2023-08-06T08:45:53;23.90;99.90
53599;DHT22;39485;45.702;11.364;2023-08-06T08:48:21;23.90;99.90
53599;DHT22;39485;45.702;11.364;2023-08-06T08:50:49;23.90;99.90
53599;DHT22;39485;45.702;11.364;2023-08-06T08:53:15;23.90;99.90
53599;DHT22;39485;45.702;11.364;2023-08-06T08:55:42;23.90;99.90
53599;DHT22;39485;45.702;11.364;2023-08-06T08:58:08;23.90;99.90
53599;DHT22;39485;45.702;11.364;2023-08-06T09:00:34;23.90;99.90
53599;DHT22;39485;45.702;11.364;2023-08-06T09:03:00;23.80;99.90
53599;DHT22;39485;45.702;11.364;2023-08-06T09:05:29;23.70;99.90
53599;DHT22;39485;45.702;11.364;2023-08-06T09:08:04;23.60;99.90
53599;DHT22;39485;45.702;11.364;2023-08-06T09:10:30;23.60;99.90
53599;DHT22;39485;45.702;11.364;2023-08-06T09:12:56;23.60;99.90
53599;DHT22;39485;45.702;11.364;2023-08-06T09:15:27;23.60;99.90
53599;DHT22;39485;45.702;11.364;2023-08-06T09:17:53;23.60;99.90
53599;DHT22;39485;45.702;11.364;2023-08-06T09:20:19;23.50;99.90
53599;DHT22;39485;45.702;11.364;2023-08-06T09:22:45;23.50;99.90
53599;DHT22;39485;45.702;11.364;2023-08-06T09:25:24;23.40;99.90
53599;DHT22;39485;45.702;11.364;2023-08-06T09:27:51;23.40;99.90
53599;DHT22;39485;45.702;11.364;2023-08-06T09:30:30;23.40;99.90
53599;DHT22;39485;45.702;11.364;2023-08-06T09:32:59;23.50;99.90
53599;DHT22;39485;45.702;11.364;2023-08-06T09:35:28;23.50;99.90
53599;DHT22;39485;45.702;11.364;2023-08-06T09:37:54;23.50;99.90
53599;DHT22;39485;45.702;11.364;2023-08-06T09:40:28;23.50;99.90
53599;DHT22;39485;45.702;11.364;2023-08-06T09:42:54;23.60;99.90
53599;DHT22;39485;45.702;11.364;2023-08-06T09:45:20;23.60;99.90
53599;DHT22;39485;45.702;11.364;2023-08-06T09:47:48;23.60;99.90
53599;DHT22;39485;45.702;11.364;2023-08-06T09:50:20;23.70;99.90
53599;DHT22;39485;45.702;11.364;2023-08-06T09:52:50;23.70;99.90
53599;DHT22;39485;45.702;11.364;2023-08-06T09:55:18;23.80;99.90
53599;DHT22;39485;45.702;11.364;2023-08-06T09:57:44;23.90;99.90
53599;DHT22;39485;45.702;11.364;2023-08-06T10:00:11;23.90;99.90
53599;DHT22;39485;45.702;11.364;2023-08-06T10:02:38;24.00;99.90
53599;DHT22;39485;45.702;11.364;2023-08-06T10:05:08;24.10;99.90
53599;DHT22;39485;45.702;11.364;2023-08-06T10:07:34;24.10;99.90
53599;DHT22;39485;45.702;11.364;2023-08-06T10:10:01;24.20;99.90
53599;DHT22;39485;45.702;11.364;2023-08-06T10:12:30;24.20;99.90
53599;DHT22;39485;45.702;11.364;2023-08-06T10:14:59;24.30;99.90
53599;DHT22;39485;45.702;11.364;2023-08-06T10:17:26;24.30;99.90
53599;DHT22;39485;45.702;11.364;2023-08-06T10:19:53;24.30;99.90
53599;DHT22;39485;45.702;11.364;2023-08-06T10:22:22;24.30;99.90
53599;DHT22;39485;45.702;11.364;2023-08-06T10:24:53;24.30;99.90
53599;DHT22;39485;45.702;11.364;2023-08-06T10:27:34;24.30;99.90
53599;DHT22;39485;45.702;11.364;2023-08-06T10:30:31;24.30;99.90
53599;DHT22;39485;45.702;11.364;2023-08-06T10:32:58;24.40;99.90
53599;DHT22;39485;45.702;11.364;2023-08-06T10:35:37;24.40;99.90
53599;DHT22;39485;45.702;11.364;2023-08-06T10:38:10;24.40;99.90
53599;DHT22;39485;45.702;11.364;2023-08-06T10:40:38;24.40;99.90
53599;DHT22;39485;45.702;11.364;2023-08-06T10:43:05;24.40;99.90
53599;DHT22;39485;45.702;11.364;2023-08-06T10:45:37;24.50;99.90
53599;DHT22;39485;45.702;11.364;2023-08-06T10:48:04;24.50;99.90
53599;DHT22;39485;45.702;11.364;2023-08-06T10:50:30;24.60;99.90
53599;DHT22;39485;45.702;11.364;2023-08-06T10:52:57;24.60;99.90
53599;DHT22;39485;45.702;11.364;2023-08-06T10:55:28;24.60;99.90
53599;DHT22;39485;45.702;11.364;2023-08-06T10:57:55;24.60;99.90
53599;DHT22;39485;45.702;11.364;2023-08-06T11:00:24;24.70;99.90
53599;DHT22;39485;45.702;11.364;2023-08-06T11:02:51;24.80;99.90
53599;DHT22;39485;45.702;11.364;2023-08-06T11:05:17;24.80;99.90
53599;DHT22;39485;45.702;11.364;2023-08-06T11:07:43;24.80;99.90
53599;DHT22;39485;45.702;11.364;2023-08-06T11:10:10;24.80;99.90
53599;DHT22;39485;45.702;11.364;2023-08-06T11:12:36;24.90;99.90
53599;DHT22;39485;45.702;11.364;2023-08-06T11:15:03;24.90;99.90
53599;DHT22;39485;45.702;11.364;2023-08-06T11:17:31;24.90;99.90
53599;DHT22;39485;45.702;11.364;2023-08-06T11:20:00;25.00;99.90
53599;DHT22;39485;45.702;11.364;2023-08-06T11:22:26;25.10;99.90
53599;DHT22;39485;45.702;11.364;2023-08-06T11:24:53;25.10;99.90
53599;DHT22;39485;45.702;11.364;2023-08-06T11:27:19;25.20;99.90
53599;DHT22;39485;45.702;11.364;2023-08-06T11:29:45;25.20;99.90
53599;DHT22;39485;45.702;11.364;2023-08-06T11:32:11;25.20;99.90
53599;DHT22;39485;45.702;11.364;2023-08-06T11:34:38;25.20;99.90
53599;DHT22;39485;45.702;11.364;2023-08-06T11:37:05;25.20;99.90
53599;DHT22;39485;45.702;11.364;2023-08-06T11:39:35;25.20;99.90
53599;DHT22;39485;45.702;11.364;2023-08-06T11:42:06;25.20;99.90
53599;DHT22;39485;45.702;11.364;2023-08-06T12:06:15;24.90;99.90
53599;DHT22;39485;45.702;11.364;2023-08-06T12:08:41;24.80;99.90
53599;DHT22;39485;45.702;11.364;2023-08-06T12:11:07;24.80;99.90
53599;DHT22;39485;45.702;11.364;2023-08-06T12:13:34;24.80;99.90
53599;DHT22;39485;45.702;11.364;2023-08-06T12:16:00;24.70;99.90
53599;DHT22;39485;45.702;11.364;2023-08-06T12:18:25;24.60;99.90
53599;DHT22;39485;45.702;11.364;2023-08-06T12:20:51;24.60;99.90
53599;DHT22;39485;45.702;11.364;2023-08-06T12:23:17;24.70;99.90
53599;DHT22;39485;45.702;11.364;2023-08-06T12:25:43;24.70;99.90
53599;DHT22;39485;45.702;11.364;2023-08-06T12:28:10;24.70;99.90
53599;DHT22;39485;45.702;11.364;2023-08-06T12:30:36;24.60;99.90
53599;DHT22;39485;45.702;11.364;2023-08-06T12:33:01;24.70;99.90
53599;DHT22;39485;45.702;11.364;2023-08-06T12:35:27;24.80;99.90
53599;DHT22;39485;45.702;11.364;2023-08-06T12:37:53;24.80;99.90
53599;DHT22;39485;45.702;11.364;2023-08-06T12:40:20;24.70;99.90
53599;DHT22;39485;45.702;11.364;2023-08-06T12:42:46;24.60;99.90
53599;DHT22;39485;45.702;11.364;2023-08-06T12:45:12;24.60;99.90
53599;DHT22;39485;45.702;11.364;2023-08-06T12:47:38;24.50;99.90
53599;DHT22;39485;45.702;11.364;2023-08-06T12:50:03;24.40;99.90
53599;DHT22;39485;45.702;11.364;2023-08-06T12:52:29;24.30;99.90
53599;DHT22;39485;45.702;11.364;2023-08-06T12:54:55;24.20;99.90
53599;DHT22;39485;45.702;11.364;2023-08-06T12:57:21;24.10;99.90
53599;DHT22;39485;45.702;11.364;2023-08-06T12:59:46;24.00;99.90
53599;DHT22;39485;45.702;11.364;2023-08-06T13:02:12;23.90;99.90
53599;DHT22;39485;45.702;11.364;2023-08-06T13:04:37;23.80;99.90
53599;DHT22;39485;45.702;11.364;2023-08-06T13:07:03;23.60;99.90
53599;DHT22;39485;45.702;11.364;2023-08-06T13:09:32;23.50;99.90
53599;DHT22;39485;45.702;11.364;2023-08-06T13:11:58;23.40;99.90
53599;DHT22;39485;45.702;11.364;2023-08-06T13:14:25;23.30;99.90
53599;DHT22;39485;45.702;11.364;2023-08-06T13:16:51;23.20;99.90
53599;DHT22;39485;45.702;11.364;2023-08-06T13:19:16;23.20;99.90
53599;DHT22;39485;45.702;11.364;2023-08-06T13:24:15;23.10;99.90
53599;DHT22;39485;45.702;11.364;2023-08-06T13:26:41;23.10;99.90
53599;DHT22;39485;45.702;11.364;2023-08-06T13:29:06;23.00;99.90
53599;DHT22;39485;45.702;11.364;2023-08-06T13:31:37;23.00;99.90
53599;DHT22;39485;45.702;11.364;2023-08-06T13:34:03;23.00;99.90
53599;DHT22;39485;45.702;11.364;2023-08-06T13:36:29;23.00;99.90
53599;DHT22;39485;45.702;11.364;2023-08-06T13:38:55;22.90;99.90
53599;DHT22;39485;45.702;11.364;2023-08-06T13:41:21;22.90;99.90
53599;DHT22;39485;45.702;11.364;2023-08-06T13:43:47;22.90;99.90
53599;DHT22;39485;45.702;11.364;2023-08-06T13:46:13;22.90;99.90
53599;DHT22;39485;45.702;11.364;2023-08-06T13:48:42;22.90;99.90
53599;DHT22;39485;45.702;11.364;2023-08-06T13:51:09;23.00;99.90
53599;DHT22;39485;45.702;11.364;2023-08-06T13:53:35;22.90;99.90
53599;DHT22;39485;45.702;11.364;2023-08-06T13:56:00;23.00;99.90
53599;DHT22;39485;45.702;11.364;2023-08-06T13:58:26;22.90;99.90
53599;DHT22;39485;45.702;11.364;2023-08-06T14:00:53;22.80;99.90
53599;DHT22;39485;45.702;11.364;2023-08-06T14:03:20;22.60;99.90
53599;DHT22;39485;45.702;11.364;2023-08-06T14:05:46;22.40;99.90
53599;DHT22;39485;45.702;11.364;2023-08-06T14:08:11;22.20;99.90
53599;DHT22;39485;45.702;11.364;2023-08-06T14:10:37;22.10;99.90
53599;DHT22;39485;45.702;11.364;2023-08-06T14:13:03;22.00;99.90
53599;DHT22;39485;45.702;11.364;2023-08-06T14:15:29;22.00;99.90
53599;DHT22;39485;45.702;11.364;2023-08-06T14:17:54;21.90;99.90
53599;DHT22;39485;45.702;11.364;2023-08-06T14:20:20;21.90;99.90
53599;DHT22;39485;45.702;11.364;2023-08-06T14:22:45;21.80;99.90
53599;DHT22;39485;45.702;11.364;2023-08-06T14:25:11;21.80;99.90
53599;DHT22;39485;45.702;11.364;2023-08-06T14:27:37;21.80;99.90
53599;DHT22;39485;45.702;11.364;2023-08-06T14:30:06;21.80;99.90
53599;DHT22;39485;45.702;11.364;2023-08-06T14:32:32;21.90;99.90
53599;DHT22;39485;45.702;11.364;2023-08-06T14:34:57;21.80;99.90
53599;DHT22;39485;45.702;11.364;2023-08-06T14:37:24;21.90;99.90
53599;DHT22;39485;45.702;11.364;2023-08-06T14:39:50;21.90;99.90
53599;DHT22;39485;45.702;11.364;2023-08-06T14:42:16;21.90;99.90
53599;DHT22;39485;45.702;11.364;2023-08-06T14:44:42;22.00;99.90
53599;DHT22;39485;45.702;11.364;2023-08-06T14:47:08;22.00;99.90
53599;DHT22;39485;45.702;11.364;2023-08-06T14:49:33;22.00;99.90
53599;DHT22;39485;45.702;11.364;2023-08-06T14:51:59;22.00;99.90
53599;DHT22;39485;45.702;11.364;2023-08-06T14:54:27;22.00;99.90
53599;DHT22;39485;45.702;11.364;2023-08-06T14:56:53;21.90;99.90
53599;DHT22;39485;45.702;11.364;2023-08-06T14:59:18;21.90;99.90
53599;DHT22;39485;45.702;11.364;2023-08-06T15:01:44;21.90;99.90
53599;DHT22;39485;45.702;11.364;2023-08-06T15:04:10;21.90;99.90
53599;DHT22;39485;45.702;11.364;2023-08-06T15:06:35;21.80;99.90
53599;DHT22;39485;45.702;11.364;2023-08-06T15:09:01;21.70;99.90
53599;DHT22;39485;45.702;11.364;2023-08-06T15:11:27;21.50;99.90
53599;DHT22;39485;45.702;11.364;2023-08-06T15:13:52;21.40;99.90
53599;DHT22;39485;45.702;11.364;2023-08-06T15:16:18;21.40;99.90
53599;DHT22;39485;45.702;11.364;2023-08-06T15:18:44;21.30;99.90
53599;DHT22;39485;45.702;11.364;2023-08-06T15:21:10;21.20;99.90
53599;DHT22;39485;45.702;11.364;2023-08-06T15:23:35;21.10;99.90
53599;DHT22;39485;45.702;11.364;2023-08-06T15:26:02;21.00;99.90
53599;DHT22;39485;45.702;11.364;2023-08-06T15:28:28;20.90;99.90
53599;DHT22;39485;45.702;11.364;2023-08-06T15:30:54;20.80;99.90
53599;DHT22;39485;45.702;11.364;2023-08-06T15:33:20;20.80;99.90
53599;DHT22;39485;45.702;11.364;2023-08-06T15:35:47;20.70;99.90
53599;DHT22;39485;45.702;11.364;2023-08-06T15:38:13;20.60;99.90
53599;DHT22;39485;45.702;11.364;2023-08-06T15:40:38;20.60;99.90
53599;DHT22;39485;45.702;11.364;2023-08-06T15:43:04;20.50;99.90
53599;DHT22;39485;45.702;11.364;2023-08-06T15:45:30;20.50;99.90
53599;DHT22;39485;45.702;11.364;2023-08-06T15:47:56;20.40;99.90